logo
App data

Isbarah

Isbarah is a cross-genre of bullet hell and platformer style, it's a hardcore 2d game and each level is a duel boss fight. Players will need to fully understand the boss patterns. It’s built on smartly managing your powers and to use them wisely to survive - everything in our game involves dodging and making smart movements.
Store | Hub | SteamDB | Site
Developer: Leikir Studio Publisher: Leikir Studio
Genre: Action, Indie
Languages: English, French
Tags: Action (39), Indie (35), Bullet Hell (22), Platformer (20), Shoot 'Em Up (16), Female Protagonist (6)
Category: Single-player, Steam Achievements, Steam Trading Cards, Steam Cloud, Steam Leaderboards
Release date: Feb 25, 2015
Price: $13.99
Owners: 0 .. 20,000
Followers: 880
Peak concurrent players yesterday: 1
Playtime in the last 2 weeks: 05:53 (average) 07:29 (median)
Playtime total: 06:02 (average) 06:32 (median)

Steam Spy is still in beta, so expect major bugs.

Owners data:

Access restricted.

This feature is only available to users with special access rights. Sorry.

If you want to proceed, you need to register or log in first and then back Steam Spy on Patreon. Look for Indie or Pro pledge.

Don't forget to use the same email as on Steam Spy!

Audience in 2 weeks:

Access restricted.

This feature is only available to users with special access rights. Sorry.

If you want to proceed, you need to register or log in first and then back Steam Spy on Patreon. Look for Indie or Pro pledge.

Don't forget to use the same email as on Steam Spy!

Peak daily concurrent players:

CCU data courtesy of SteamDB. Used with permission.

Hourly concurrent players:

Daily Twitch stats:

Hourly Twitch stats:

YouTube:

The views data is based on top 50 videos uploaded last week. Actual number of views might be more than the number shown.

The displayed number of videos uploaded yesterday is limited to 50, so if there were more videos uploaded, the number will still show 50.

If the game has commonly used word as its name (like "FEAR" or "Volume") its number of Youtube views might be wrong.

Games similar to this one:

# Game Release date
Price
Score rank
(Userscore / Metascore)
Owners
Players
Playtime (Median)
1 Aaero Apr 11, 2017 $14.9990% (94%)0 .. 20,0000%00:00 (00:00)
2 Star Trek : 25th Anniversary May 7, 2015 $9.9990% (94%)0 .. 20,0000%00:00 (00:00)
3 Star Trek: Judgment Rites May 8, 2015 $9.99N/A (N/A)0 .. 20,0000%00:00 (00:00)
4 Adventure in the Tower of Flight Dec 23, 2015 $4.9987% (93%)0 .. 20,0000%00:00 (00:00)
5 Counter Spell Oct 5, 2015 $9.9983% (92%)0 .. 20,0000%00:00 (00:00)
6 Knightmare Tower Jun 16, 2014 $3.9983% (92%)0 .. 20,0000%00:00 (00:00)
7 Spark the Electric Jester Apr 10, 2017 $14.9979% (91%)0 .. 20,0000%00:00 (00:00)
8 Fractured Soul Feb 5, 2015 $9.99N/A (N/A)0 .. 20,0000%00:00 (00:00)
9 Conga Master Sep 14, 2016 $9.99N/A (N/A)0 .. 20,0000%00:00 (00:00)
10 Hero of Many Sep 15, 2014 $6.9976% (90%)20,000 .. 50,0000%00:00 (00:00)
11 THE WALL 墙 Jun 8, 2017 $1.9973% (89%)0 .. 20,0000%00:00 (00:00)
12 XIIZEAL Jun 5, 2015 $11.99N/A (N/A)0 .. 20,0000%00:00 (00:00)
13 Neighborhorde Jun 5, 2017 $4.99N/A (N/A)0 .. 20,0000%00:00 (00:00)
14 Knight Squad Nov 16, 2015 $14.9965% (86%)50,000 .. 100,0000%00:00 (00:00)
15 Asura: Vengeance Expansion Apr 13, 2017 $9.9965% (86%)0 .. 20,0000%00:00 (00:00)
16 Ittle Dew 2 Nov 15, 2016 $19.9965% (86%)0 .. 20,00014.29%00:17 (00:05)
17 Disney's Chicken Little Oct 20, 2005 $9.9965% (86%)0 .. 20,0000%00:00 (00:00)
18 Nongünz May 19, 2017 $6.9962% (85%)100,000 .. 200,0000.64%00:51 (00:17)
19 Azure Striker Gunvolt Aug 28, 2015 $14.9962% (85%)20,000 .. 50,00012.5%00:04 (00:03)
20 Vintage Year Jan 2, 2015 $2.9962% (85%)0 .. 20,0000%00:00 (00:00)
21 Dyna Bomb May 13, 2016 $4.99N/A (N/A)0 .. 20,0000%00:00 (00:00)
22 Fighties Jul 13, 2015 $4.9957% (83%)0 .. 20,0000%00:00 (00:00)
23 After The End: The Harvest Jun 2, 2017 $4.9955% (82%)20,000 .. 50,0008%00:02 (00:00)
24 LocoCycle Feb 14, 2014 $9.9950% (80%)0 .. 20,0000%00:00 (00:00)
25 Airport Madness: World Edition May 28, 2015 $9.9950% (80%)20,000 .. 50,0000%00:00 (00:00)
26 Klang Sep 22, 2016 $14.9948% (79%/71%)0 .. 20,0000%00:00 (00:00)
27 Blue Effect VR Sep 29, 2016 $14.9948% (79%)0 .. 20,0000%00:00 (00:00)
28 Age of Barbarian Extended Cut May 20, 2016 $12.9946% (78%)0 .. 20,0000%00:00 (00:00)
29 Not Dying Today Jan 13, 2017 $9.9944% (77%)0 .. 20,0000%00:00 (00:00)
30 Left Alone Apr 28, 2016 $3.4942% (76%)0 .. 20,0000%00:00 (00:00)
31 Starchaser: Priestess of the Night Sky Jul 24, 2015 $9.99N/A (N/A)0 .. 20,0000%00:00 (00:00)
32 Zero Reflex : Black Eye Edition Nov 5, 2015 $3.9940% (75%)20,000 .. 50,0000%00:00 (00:00)
33 Aeon May 22, 2017 $4.9940% (75%)0 .. 20,0000%00:00 (00:00)
34 ABRACA - Imagic Games Mar 31, 2016 $14.99N/A (N/A)0 .. 20,0000%00:00 (00:00)
35 BoxesWithGuns Dec 14, 2014 $1.9935% (72%)20,000 .. 50,0000%00:00 (00:00)
36 The Girl and the Robot Aug 17, 2016 $9.99N/A (N/A)0 .. 20,0000%00:00 (00:00)
37 Tank Brawl Apr 20, 2016 $4.99N/A (N/A)0 .. 20,0000%00:00 (00:00)
38 Toxic Bunny HD Jul 18, 2014 $5.99N/A (N/A)0 .. 20,0000%00:00 (00:00)
39 Phantaruk Aug 16, 2016 $4.9930% (69%/53%)20,000 .. 50,0000%00:00 (00:00)
40 Planet of Mubu Apr 1, 2017 $5.99N/A (N/A)20,000 .. 50,0000%00:00 (00:00)
41 Spud's Quest Jul 31, 2014 $7.99N/A (N/A)0 .. 20,0000%00:00 (00:00)
42 Pixel-Warfare: Pro Sep 20, 2016 $0.9929% (68%)20,000 .. 50,0000%00:00 (00:00)
43 Demon's Crystals Apr 21, 2016 $4.99N/A (N/A)0 .. 20,0000%00:00 (00:00)
44 Demon Peak Jul 7, 2017 $4.9926% (66%)0 .. 20,0000%00:00 (00:00)
45 Dystopy Feb 28, 2017 FreeN/A (N/A)0 .. 20,0000%00:00 (00:00)
46 Bombshell Jan 29, 2016 $34.9921% (62%)0 .. 20,0000%00:00 (00:00)
47 Alpha Zylon Dec 19, 2007 $4.9921% (62%)20,000 .. 50,0000%00:00 (00:00)
48 Disney Alice in Wonderland Mar 2, 2010 $19.9920% (61%/63%)0 .. 20,0000%00:00 (00:00)
49 Fowl Space Mar 21, 2012 $4.9919% (60%)20,000 .. 50,0000%00:00 (00:00)
50 Hybrid Wars Sep 29, 2016 $17.9919% (60%/54%)0 .. 20,0000%00:00 (00:00)
51 Shadowcrypt Jul 7, 2014 $4.9917% (58%)0 .. 20,0000%00:00 (00:00)
52 The Curse of Nordic Cove Apr 23, 2015 $0.99N/A (N/A)0 .. 20,0000%00:00 (00:00)
53 Disney Tangled Nov 19, 2010 $19.99N/A (N/A)0 .. 20,0000%00:00 (00:00)
54 Disney•Pixar Cars 2: The Video Game Jun 21, 2011 $19.9912% (52%)0 .. 20,0005.56%00:01 (00:00)
55 Scooby Doo! & Looney Tunes Cartoon Universe: Adventure Jul 16, 2014 $19.99N/A (N/A)0 .. 20,0000%00:00 (00:00)
56 Plancon: Space Conflict Aug 8, 2016 $6.9910% (48%)20,000 .. 50,0000%00:00 (00:00)
57 #KILLALLZOMBIES Aug 10, 2016 $4.99N/A (N/A)20,000 .. 50,0008.11%02:33 (01:57)
58 Infinium Strike Jul 14, 2016 $9.999% (47%)0 .. 20,0000%00:00 (00:00)
59 Blasting Agent: Ultimate Edition Aug 17, 2016 $2.99N/A (N/A)0 .. 20,0000%00:00 (00:00)
60 Lost Sea Jul 5, 2016 $14.999% (46%)0 .. 20,0007.69%03:02 (01:00)
61 Red Goddess: Inner World Sep 1, 2015 $9.995% (37%/53%)0 .. 20,0000%00:00 (00:00)
62 Kick-Ass 2 Aug 15, 2014 $19.995% (36%)0 .. 20,0001.75%01:00 (00:20)
63 Disney Fairies: Tinker Bell's Adventure Oct 6, 2014 $19.99N/A (N/A)0 .. 20,0000%00:00 (00:00)
64 Masterspace Jun 15, 2015 $7.993% (27%)0 .. 20,0000%00:00 (00:00)
65 Monster Challenge Circus May 15, 2014 $4.99N/A (N/A)0 .. 20,0000%00:00 (00:00)
66 Deer Hunt Legends Jan 7, 2013 $4.99N/A (N/A)0 .. 20,0000%00:00 (00:00)

Owners of this game also own:

Access restricted.

This feature is only available to users with special access rights. Sorry.

If you want to proceed, you need to register or log in first and then back Steam Spy on Patreon. Look for Indie or Pro pledge.

Don't forget to use the same email as on Steam Spy!

Playtime distribution:

Access restricted.

This feature is only available to users with special access rights. Sorry.

If you want to proceed, you need to register or log in first and then back Steam Spy on Patreon. Look for Indie or Pro pledge.

Don't forget to use the same email as on Steam Spy!

Playtime (2 weeks):

Access restricted.

This feature is only available to users with special access rights. Sorry.

If you want to proceed, you need to register or log in first and then back Steam Spy on Patreon. Look for Indie or Pro pledge.

Don't forget to use the same email as on Steam Spy!

User reviews:

Login required.

Please register or log in to see this information.